createdAt,value
2023-01-03T00:04:49.439Z,35.20228
2023-01-03T00:09:51.002Z,35.15515
2023-01-03T00:14:51.959Z,35.12044
2023-01-03T00:19:52.933Z,35.28474
2023-01-03T00:24:53.939Z,35.367
2023-01-03T00:29:54.883Z,35.41403
2023-01-03T00:34:59.010Z,35.45558
2023-01-03T00:40:04.129Z,35.54301
2023-01-03T00:45:05.168Z,35.57904
2023-01-03T00:50:06.117Z,35.67845
2023-01-03T00:55:07.032Z,35.42766
2023-01-03T01:00:08.037Z,35.41052
2023-01-03T01:05:08.974Z,35.27654
2023-01-03T01:10:09.953Z,35.14339
2023-01-03T01:15:10.821Z,34.96214
2023-01-03T01:20:11.780Z,34.86969
2023-01-03T01:25:12.716Z,34.80704
2023-01-03T01:30:13.622Z,34.80776
2023-01-03T01:35:14.517Z,34.77902
2023-01-03T01:40:15.519Z,34.78522
2023-01-03T01:45:16.383Z,34.87329
2023-01-03T01:50:17.332Z,34.92055
2023-01-03T01:55:18.298Z,35.09674
2023-01-03T02:00:19.291Z,35.13772
2023-01-03T02:05:20.231Z,35.1785
2023-01-03T02:10:21.314Z,34.92032
2023-01-03T02:15:22.229Z,34.92769
2023-01-03T02:20:23.168Z,34.79288
2023-01-03T02:25:24.172Z,34.80331
2023-01-03T02:30:25.158Z,34.61509
2023-01-03T02:35:26.240Z,34.55109
2023-01-03T02:40:27.466Z,34.53486
2023-01-03T02:45:28.370Z,34.2858
2023-01-03T02:50:29.306Z,34.20073
2023-01-03T02:55:30.247Z,34.01511
2023-01-03T03:00:31.203Z,33.7879
2023-01-03T03:05:32.112Z,33.57391
2023-01-03T03:10:33.146Z,33.42349
2023-01-03T03:15:34.054Z,33.40126
2023-01-03T03:20:35.062Z,33.31987
2023-01-03T03:25:36.197Z,33.33288
2023-01-03T03:30:37.201Z,33.47895
2023-01-03T03:35:38.147Z,33.54387
2023-01-03T03:40:39.094Z,33.67918
2023-01-03T03:45:40.054Z,33.78648
2023-01-03T03:50:40.984Z,33.78786
2023-01-03T03:55:41.912Z,33.77118
2023-01-03T04:00:42.808Z,33.61358
2023-01-03T04:05:43.732Z,33.63232
2023-01-03T04:10:44.675Z,33.51686
2023-01-03T04:15:45.599Z,33.5627
2023-01-03T04:20:46.537Z,33.36873
2023-01-03T04:25:47.511Z,33.35187
2023-01-03T04:30:48.408Z,33.35842
2023-01-03T04:35:49.317Z,33.4197
2023-01-03T04:40:50.331Z,33.5551
2023-01-03T04:45:51.310Z,33.72564
2023-01-03T04:50:52.298Z,33.89597
2023-01-03T04:55:53.220Z,33.84941
2023-01-03T05:00:54.232Z,33.89666
2023-01-03T05:05:55.236Z,33.88478
2023-01-03T05:10:56.159Z,33.87868
2023-01-03T05:15:57.097Z,33.80235
2023-01-03T05:20:58.037Z,33.81444
2023-01-03T05:25:58.935Z,33.92715
2023-01-03T05:30:59.899Z,34.06776
2023-01-03T05:36:00.798Z,34.17278
2023-01-03T05:41:01.890Z,34.17921
2023-01-03T05:46:02.962Z,34.23209
2023-01-03T05:51:04.066Z,34.33108
2023-01-03T05:56:04.982Z,34.30238
2023-01-03T06:01:05.982Z,34.44897
2023-01-03T06:06:06.987Z,34.71765
2023-01-03T06:11:07.975Z,34.87
2023-01-03T06:16:09.105Z,35.13201
2023-01-03T06:21:10.206Z,35.23745
2023-01-03T06:26:11.241Z,35.35342
2023-01-03T06:31:12.323Z,35.34745
2023-01-03T06:36:13.348Z,35.42297
2023-01-03T06:41:14.367Z,35.35907
2023-01-03T06:46:15.480Z,35.3651
2023-01-03T06:51:16.461Z,35.28945
2023-01-03T06:56:17.364Z,35.26091
2023-01-03T07:01:18.430Z,35.3254
2023-01-03T07:06:19.383Z,35.32034
2023-01-03T07:11:20.298Z,35.45441
2023-01-03T07:16:21.309Z,35.49557
2023-01-03T07:21:22.261Z,35.52504
2023-01-03T07:26:23.189Z,35.58945
2023-01-03T07:31:24.246Z,35.61281
2023-01-03T07:36:25.223Z,35.67673
2023-01-03T07:41:26.446Z,35.60129
2023-01-03T07:46:27.721Z,35.6358
2023-01-03T07:51:28.636Z,35.58345
2023-01-03T07:56:29.557Z,35.66486
2023-01-03T08:01:30.759Z,35.5425
2023-01-03T08:06:31.907Z,35.53656
2023-01-03T08:11:32.909Z,35.50749
2023-01-03T08:16:33.856Z,35.496
2023-01-03T08:21:34.789Z,35.6008
2023-01-03T08:26:35.801Z,35.67569
2023-01-03T08:31:36.775Z,35.63477
2023-01-03T08:36:37.675Z,35.65172
2023-01-03T08:41:38.661Z,35.54692
2023-01-03T08:46:39.654Z,35.66279
2023-01-03T08:51:40.672Z,35.48103
2023-01-03T08:56:41.683Z,35.45291
2023-01-03T09:01:42.810Z,35.5509
2023-01-03T09:06:43.961Z,35.34643
2023-01-03T09:11:44.989Z,35.29908
2023-01-03T09:16:49.086Z,35.23968
2023-01-03T09:21:50.642Z,35.12775
2023-01-03T09:26:54.838Z,34.94083
2023-01-03T09:31:56.264Z,34.81685
2023-01-03T09:36:57.308Z,34.58237
2023-01-03T09:41:58.340Z,34.38403
2023-01-03T09:46:59.360Z,34.39571
2023-01-03T09:52:00.392Z,34.23276
2023-01-03T09:57:01.428Z,34.22023
2023-01-03T10:02:02.496Z,34.04886
2023-01-03T10:07:03.629Z,33.63138
2023-01-03T10:12:04.617Z,33.43695
2023-01-03T10:17:05.692Z,33.21369
2023-01-03T10:22:06.699Z,32.9416
2023-01-03T10:27:07.642Z,32.49904
2023-01-03T10:32:08.768Z,32.405
2023-01-03T10:37:09.748Z,32.099
2023-01-03T10:42:10.709Z,31.59111
2023-01-03T10:47:11.636Z,31.53683
2023-01-03T10:52:12.704Z,31.35629
2023-01-03T10:57:13.892Z,31.3694
2023-01-03T11:02:15.187Z,31.15565
2023-01-03T11:07:16.558Z,30.65887
2023-01-03T11:12:17.611Z,30.48222
2023-01-03T11:17:18.573Z,30.20163
2023-01-03T11:22:19.517Z,30.2418
2023-01-03T11:27:20.477Z,29.40563
2023-01-03T11:32:21.832Z,28.69031
2023-01-03T11:37:22.979Z,29.33316
2023-01-03T11:42:23.983Z,29.84553
2023-01-03T11:47:24.937Z,30.07594
2023-01-03T11:52:26.040Z,28.68918
2023-01-03T11:57:27.289Z,27.27616
2023-01-03T12:02:28.555Z,28.12326
2023-01-03T12:07:48.551Z,28.27803
2023-01-03T12:12:51.164Z,28.57034
2023-01-03T12:17:52.140Z,29.00327
2023-01-03T12:22:53.107Z,29.32349
2023-01-03T12:27:54.171Z,29.57593
2023-01-03T12:32:55.301Z,29.62809
2023-01-03T12:37:56.245Z,29.6589
2023-01-03T12:42:57.292Z,29.82724
2023-01-03T12:47:58.267Z,26.84861
2023-01-03T12:52:59.215Z,23.40803
2023-01-03T12:58:00.302Z,22.34495
2023-01-03T13:03:01.650Z,22.01239
2023-01-03T13:08:02.846Z,23.63636
2023-01-03T13:13:03.904Z,24.96961
2023-01-03T13:18:05.005Z,25.58749
2023-01-03T13:23:05.959Z,26.02695
2023-01-03T13:28:06.860Z,26.50422
2023-01-03T13:33:07.804Z,26.67253
2023-01-03T13:38:08.781Z,26.84238
2023-01-03T13:43:09.755Z,27.19169
2023-01-03T13:48:10.719Z,27.39211
2023-01-03T13:53:11.679Z,27.59345
2023-01-03T13:58:12.759Z,27.91581
2023-01-03T14:03:13.903Z,28.10613
2023-01-03T14:08:14.971Z,28.34326
2023-01-03T14:13:16.099Z,28.669
2023-01-03T14:18:17.094Z,28.90017
2023-01-03T14:23:57.782Z,29.25074
2023-01-03T14:29:00.490Z,29.55116
2023-01-03T14:34:01.497Z,29.6348
2023-01-03T14:39:02.604Z,29.78155
2023-01-03T14:44:03.573Z,29.81108
2023-01-03T14:49:04.550Z,29.89533
2023-01-03T14:54:05.528Z,30.13207
2023-01-03T14:59:06.471Z,30.31424
2023-01-03T15:04:07.428Z,30.37987
2023-01-03T15:09:08.372Z,30.51587
2023-01-03T15:14:09.399Z,30.67435
2023-01-03T15:19:10.392Z,30.73781
2023-01-03T15:24:11.330Z,30.80295
2023-01-03T15:29:12.371Z,31.02677
2023-01-03T15:34:13.422Z,31.10879
2023-01-03T15:39:14.413Z,31.17931
2023-01-03T15:44:15.403Z,31.2388
2023-01-03T15:49:16.471Z,31.40403
2023-01-03T15:54:17.459Z,31.59333
2023-01-03T15:59:18.661Z,31.65463
2023-01-03T16:04:19.745Z,31.91231
2023-01-03T16:09:20.725Z,31.92532
2023-01-03T16:14:21.735Z,32.03773
2023-01-03T16:19:22.703Z,32.22422
2023-01-03T16:24:23.647Z,32.31767
2023-01-03T16:29:24.605Z,32.3834
2023-01-03T16:34:30.224Z,32.51257
2023-01-03T16:39:34.478Z,32.58398
2023-01-03T16:44:35.421Z,32.62667
2023-01-03T16:49:36.347Z,32.75564
2023-01-03T16:54:37.287Z,32.94887
2023-01-03T16:59:38.331Z,33.03699
2023-01-03T17:04:39.304Z,33.26449
2023-01-03T17:09:40.357Z,33.41076
2023-01-03T17:14:41.354Z,33.4113
2023-01-03T17:20:03.532Z,33.44671
2023-01-03T17:25:05.545Z,33.58078
2023-01-03T17:30:06.770Z,33.72683
2023-01-03T17:35:07.762Z,33.88948
2023-01-03T17:40:08.732Z,33.95859
2023-01-03T17:45:09.744Z,33.95851
2023-01-03T17:50:10.729Z,33.95318
2023-01-03T17:55:11.648Z,34.1504
2023-01-03T18:00:12.622Z,34.09199
2023-01-03T18:05:17.548Z,34.05098
2023-01-03T18:10:22.146Z,34.09811
2023-01-03T18:15:23.127Z,34.23237
2023-01-03T18:20:24.072Z,34.26754
2023-01-03T18:25:25.079Z,34.30269
2023-01-03T18:30:26.050Z,34.44219
2023-01-03T18:35:32.524Z,34.41891
2023-01-03T18:40:38.388Z,34.43579
2023-01-03T18:45:39.394Z,34.51217
2023-01-03T18:50:40.507Z,34.59304
2023-01-03T18:55:41.661Z,34.69765
2023-01-03T19:00:42.643Z,34.61103
2023-01-03T19:05:43.680Z,34.6415
2023-01-03T19:10:44.673Z,34.85576
2023-01-03T19:15:46.103Z,34.96511
2023-01-03T19:20:47.327Z,35.04065
2023-01-03T19:25:48.314Z,35.10421
2023-01-03T19:30:49.307Z,35.104
2023-01-03T19:35:50.254Z,35.12165
2023-01-03T19:40:51.154Z,35.15661
2023-01-03T19:45:52.120Z,35.23733
2023-01-03T19:50:53.221Z,35.33478
2023-01-03T19:55:54.341Z,35.39196
2023-01-03T20:00:55.279Z,35.37959
2023-01-03T20:05:56.223Z,35.38555
2023-01-03T20:10:57.182Z,35.48455
2023-01-03T20:15:58.207Z,35.65765
2023-01-03T20:20:59.296Z,35.5985
2023-01-03T20:26:00.659Z,35.66119
2023-01-03T20:31:01.801Z,35.53927
2023-01-03T20:36:22.580Z,35.66664
2023-01-03T20:41:24.728Z,35.61975
2023-01-03T20:46:25.726Z,35.58469
2023-01-03T20:51:27.192Z,35.62539
2023-01-03T20:56:28.465Z,35.66086
2023-01-03T21:01:29.549Z,35.70199
2023-01-03T21:06:30.637Z,35.78839
2023-01-03T21:11:31.582Z,35.7241
2023-01-03T21:16:32.738Z,35.77
2023-01-03T21:21:33.828Z,35.7986
2023-01-03T21:26:34.801Z,35.77532
2023-01-03T21:31:36.135Z,35.81512
2023-01-03T21:36:37.197Z,35.72776
2023-01-03T21:41:38.157Z,35.69859
2023-01-03T21:46:39.293Z,35.75013
2023-01-03T21:51:40.258Z,35.7612
2023-01-03T21:56:41.227Z,35.67326
2023-01-03T22:01:47.504Z,35.67864
2023-01-03T22:06:48.684Z,35.70748
2023-01-03T22:11:49.651Z,35.6722
2023-01-03T22:16:50.729Z,35.72966
2023-01-03T22:21:51.734Z,35.5899
2023-01-03T22:26:52.713Z,35.54866
2023-01-03T22:31:53.783Z,35.50788
2023-01-03T22:36:54.812Z,35.56612
2023-01-03T22:41:56.047Z,35.65918
2023-01-03T22:46:56.995Z,35.73534
2023-01-03T22:51:58.066Z,35.78734
2023-01-03T22:56:59.106Z,35.82758
2023-01-03T23:02:00.263Z,35.7816
2023-01-03T23:07:01.364Z,35.89829
2023-01-03T23:12:02.383Z,35.89316
2023-01-03T23:17:03.427Z,35.89369
2023-01-03T23:22:04.401Z,36.01534
2023-01-03T23:27:05.397Z,35.92883
2023-01-03T23:32:06.314Z,35.9757
2023-01-03T23:37:07.301Z,35.8834
2023-01-03T23:42:08.210Z,36.01161
2023-01-03T23:47:12.158Z,35.90788
2023-01-03T23:52:13.768Z,35.9893
2023-01-03T23:57:14.793Z,35.9897
